Time;durP1;ratioP1;P1;durP2;ratioP2;P2;SDS_P1;SDS_P2;PMS_P1;PMS_P2;Temp;Humidity;BMP_temperature;BMP_pressure;BME280_temperature;BME280_humidity;BME280_pressure;Samples;Min_cycle;Max_cycle;Signal;HPM_P1;HPM_P2
2022/12/20 00:01:29;;;;;;;2.05;1.20;;;19.80;52.60;;;;;;5069867;28;20507;-60
2022/12/20 00:03:56;;;;;;;4.95;1.42;;;19.80;52.70;;;;;;5071785;28;20051;-61
2022/12/20 00:06:21;;;;;;;2.25;1.23;;;19.80;52.60;;;;;;5071406;28;20487;-61
2022/12/20 00:08:54;;;;;;;4.20;1.33;;;19.80;52.60;;;;;;5071107;28;20047;-61
2022/12/20 00:11:20;;;;;;;3.25;1.50;;;19.80;52.60;;;;;;5071375;28;20047;-60
2022/12/20 00:13:46;;;;;;;1.85;1.08;;;19.80;52.70;;;;;;5071401;28;20048;-60
2022/12/20 00:16:12;;;;;;;3.80;1.40;;;19.80;52.70;;;;;;5071058;28;20036;-60
2022/12/20 00:18:38;;;;;;;2.92;1.02;;;19.80;52.60;;;;;;5071890;28;20051;-60
2022/12/20 00:21:05;;;;;;;3.33;1.30;;;19.70;52.60;;;;;;5072123;28;20032;-60
2022/12/20 00:23:30;;;;;;;2.42;1.13;;;19.70;52.60;;;;;;5070461;28;20563;-60
2022/12/20 00:26:10;;;;;;;2.25;1.20;;;19.70;52.60;;;;;;5074114;28;20127;-60
2022/12/20 00:28:35;;;;;;;2.15;1.00;;;19.70;53.30;;;;;;5073238;28;20093;-60
2022/12/20 00:31:01;;;;;;;2.15;0.98;;;19.70;52.60;;;;;;5075507;28;20044;-60
2022/12/20 00:33:27;;;;;;;3.22;1.17;;;19.70;52.60;;;;;;5075425;28;20044;-60
2022/12/20 00:35:55;;;;;;;3.22;1.23;;;19.70;52.60;;;;;;5074375;28;20067;-60
2022/12/20 00:38:20;;;;;;;4.30;1.05;;;19.70;52.70;;;;;;5074960;28;20135;-60
2022/12/20 00:40:46;;;;;;;2.65;1.25;;;19.70;52.60;;;;;;5075297;28;20127;-60
2022/12/20 00:43:12;;;;;;;1.90;1.00;;;19.70;52.70;;;;;;5073939;28;20041;-60
2022/12/20 00:45:37;;;;;;;2.40;1.20;;;19.60;52.60;;;;;;5073861;28;20056;-60
2022/12/20 00:48:03;;;;;;;2.50;1.00;;;19.60;52.60;;;;;;5075406;28;20028;-60
2022/12/20 00:50:29;;;;;;;2.05;1.00;;;19.60;52.60;;;;;;5073973;28;20483;-60
2022/12/20 00:52:54;;;;;;;2.60;1.30;;;19.60;52.60;;;;;;5075301;28;20455;-60
2022/12/20 00:55:20;;;;;;;2.25;1.13;;;19.60;52.60;;;;;;5073482;28;20068;-60
2022/12/20 00:57:45;;;;;;;3.90;0.90;;;19.60;52.70;;;;;;5074074;28;20044;-60
2022/12/20 01:00:11;;;;;;;3.05;1.23;;;19.60;52.70;;;;;;5074742;28;20098;-60
2022/12/20 01:02:37;;;;;;;2.90;0.93;;;19.60;52.70;;;;;;5075115;28;20044;-60
2022/12/20 01:05:03;;;;;;;3.15;1.10;;;19.50;52.60;;;;;;5072622;28;20083;-60
2022/12/20 01:07:28;;;;;;;2.60;1.08;;;19.50;52.60;;;;;;5073011;28;20055;-60
2022/12/20 01:09:54;;;;;;;2.92;1.10;;;19.50;52.60;;;;;;5074268;28;20059;-60
2022/12/20 01:12:19;;;;;;;1.80;0.85;;;19.50;52.60;;;;;;5073517;28;20055;-60
2022/12/20 01:14:45;;;;;;;2.65;1.15;;;19.50;52.60;;;;;;5074843;28;20048;-60
2022/12/20 01:17:10;;;;;;;3.17;0.98;;;19.50;52.60;;;;;;5074391;28;20511;-60
2022/12/20 01:19:36;;;;;;;2.30;1.10;;;19.50;52.70;;;;;;5072369;28;20095;-60
2022/12/20 01:22:01;;;;;;;4.28;1.20;;;19.50;53.00;;;;;;5073563;28;20044;-60
2022/12/20 01:24:27;;;;;;;3.08;1.10;;;19.50;52.60;;;;;;5074157;28;20033;-60
2022/12/20 01:26:53;;;;;;;2.67;1.15;;;19.50;52.60;;;;;;5073723;28;20131;-60
2022/12/20 01:29:18;;;;;;;2.05;0.95;;;19.50;52.60;;;;;;5073034;28;20044;-58
2022/12/20 01:31:44;;;;;;;3.35;1.10;;;19.50;52.70;;;;;;5074217;28;20488;-58
2022/12/20 01:34:10;;;;;;;1.23;0.80;;;19.40;52.60;;;;;;5073277;28;20057;-58
2022/12/20 01:36:37;;;;;;;1.73;0.98;;;19.40;52.60;;;;;;5074047;28;20045;-58
2022/12/20 01:39:13;;;;;;;4.55;1.20;;;19.40;52.70;;;;;;5073808;28;20449;-58
2022/12/20 01:41:39;;;;;;;1.75;0.80;;;19.40;52.60;;;;;;5074116;28;20076;-58
2022/12/20 01:44:17;;;;;;;3.33;1.10;;;19.40;52.70;;;;;;5074039;28;20069;-58
2022/12/20 01:46:43;;;;;;;1.45;0.80;;;19.40;52.60;;;;;;5073497;28;20151;-58
2022/12/20 01:49:11;;;;;;;2.00;1.13;;;19.40;52.70;;;;;;5073865;28;20041;-60
2022/12/20 01:51:45;;;;;;;2.80;1.00;;;19.30;52.60;;;;;;5055972;28;20063;-60
2022/12/20 01:54:14;;;;;;;2.05;0.90;;;19.40;52.70;;;;;;5071404;28;20055;-60
2022/12/20 01:56:40;;;;;;;2.40;1.02;;;19.40;52.70;;;;;;5073911;28;20045;-60
2022/12/20 01:59:05;;;;;;;1.88;0.80;;;19.40;52.70;;;;;;5072474;28;20381;-60
2022/12/20 02:01:31;;;;;;;2.00;0.70;;;19.40;52.70;;;;;;5054918;28;20159;-60
2022/12/20 02:03:56;;;;;;;2.13;1.05;;;19.40;52.70;;;;;;5072428;28;20041;-59
2022/12/20 02:06:23;;;;;;;1.50;1.00;;;19.40;52.70;;;;;;5073567;28;20044;-60
2022/12/20 02:08:49;;;;;;;2.35;1.00;;;19.30;52.70;;;;;;5071410;28;20048;-60
2022/12/20 02:12:00;;;;;;;1.85;0.77;;;19.40;52.70;;;;;;5055214;28;20041;-59
2022/12/20 02:14:34;;;;;;;2.35;0.98;;;19.30;52.60;;;;;;5066659;28;20052;-60
2022/12/20 02:17:18;;;;;;;1.77;0.70;;;19.30;52.70;;;;;;5072371;28;20071;-60
2022/12/20 02:20:06;;;;;;;3.45;0.90;;;19.30;52.70;;;;;;5072170;28;20480;-60
2022/12/20 02:22:53;;;;;;;1.60;0.80;;;19.30;52.60;;;;;;5071520;28;20048;-60
2022/12/20 02:25:52;;;;;;;1.65;0.80;;;19.30;52.70;;;;;;5073168;28;20363;-59
2022/12/20 02:28:39;;;;;;;2.08;0.90;;;19.30;52.70;;;;;;5072552;28;20040;-60
2022/12/20 02:31:08;;;;;;;3.00;1.15;;;19.30;52.70;;;;;;5073326;28;20215;-60
2022/12/20 02:33:33;;;;;;;1.50;0.77;;;19.20;52.60;;;;;;5055115;28;20075;-60
2022/12/20 02:35:59;;;;;;;1.80;0.85;;;19.20;52.70;;;;;;5072328;28;20087;-60
2022/12/20 02:38:33;;;;;;;1.80;0.93;;;19.20;52.70;;;;;;5071501;28;20098;-60
2022/12/20 02:41:16;;;;;;;1.25;0.60;;;19.20;52.70;;;;;;5073301;28;20048;-60
2022/12/20 02:46:26;;;;;;;2.03;0.63;;;19.20;52.70;;;;;;5056812;28;20229;-60
2022/12/20 02:48:54;;;;;;;1.58;0.70;;;19.20;52.70;;;;;;5070851;28;20044;-59
2022/12/20 02:51:19;;;;;;;1.60;0.90;;;19.20;52.70;;;;;;5071603;28;20044;-59
2022/12/20 02:53:45;;;;;;;1.33;0.70;;;19.20;52.70;;;;;;5072623;28;20044;-59
2022/12/20 02:56:27;;;;;;;2.95;0.90;;;19.20;52.70;;;;;;5071558;28;20132;-59
2022/12/20 02:59:00;;;;;;;1.20;0.75;;;19.20;52.70;;;;;;5072396;28;20567;-60
2022/12/20 03:01:29;;;;;;;1.23;0.70;;;19.20;52.70;;;;;;5061196;28;20045;-59
2022/12/20 03:03:56;;;;;;;1.10;0.60;;;19.20;52.70;;;;;;5050634;28;20094;-60
2022/12/20 03:06:21;;;;;;;1.88;0.70;;;19.10;52.70;;;;;;5050820;28;20060;-60
2022/12/20 03:08:47;;;;;;;1.83;0.95;;;19.20;52.80;;;;;;5051107;28;20049;-60
2022/12/20 03:11:13;;;;;;;1.70;0.80;;;19.10;52.70;;;;;;5051657;28;20485;-59
2022/12/20 03:13:38;;;;;;;1.65;0.80;;;19.10;52.70;;;;;;5051053;28;20053;-59
2022/12/20 03:16:04;;;;;;;2.25;0.80;;;19.10;52.80;;;;;;5051090;28;20124;-59
2022/12/20 03:18:30;;;;;;;1.27;0.63;;;19.10;52.80;;;;;;5051536;28;20048;-60
2022/12/20 03:20:55;;;;;;;1.05;0.75;;;19.10;52.80;;;;;;5052599;28;20045;-59
2022/12/20 03:23:21;;;;;;;1.98;0.90;;;19.10;52.80;;;;;;5052007;28;20128;-60
2022/12/20 03:25:47;;;;;;;1.20;0.60;;;19.10;52.80;;;;;;5051862;28;20053;-59
2022/12/20 03:28:12;;;;;;;2.42;1.13;;;19.10;52.80;;;;;;5050607;28;20485;-60
2022/12/20 03:30:38;;;;;;;2.42;0.73;;;19.10;52.80;;;;;;5052323;28;20036;-59
2022/12/20 03:33:03;;;;;;;1.65;0.80;;;19.10;52.90;;;;;;5063528;28;20068;-60
2022/12/20 03:35:29;;;;;;;2.35;0.98;;;19.10;52.80;;;;;;5070416;28;20048;-59
2022/12/20 03:37:55;;;;;;;1.23;0.70;;;19.10;52.90;;;;;;5070878;28;20040;-60
2022/12/20 03:40:21;;;;;;;1.42;0.70;;;19.10;52.90;;;;;;5070048;28;20040;-59
2022/12/20 03:42:46;;;;;;;1.75;0.77;;;19.10;52.90;;;;;;5072325;28;20040;-59
2022/12/20 03:45:12;;;;;;;1.92;0.75;;;19.10;52.90;;;;;;5072207;28;20391;-60
2022/12/20 03:47:37;;;;;;;1.55;0.77;;;19.10;52.90;;;;;;5071322;28;20055;-60
2022/12/20 03:50:04;;;;;;;1.83;0.80;;;19.10;52.90;;;;;;5072286;28;20072;-60
2022/12/20 03:52:30;;;;;;;1.15;0.80;;;19.10;53.00;;;;;;5071528;28;20040;-60
2022/12/20 03:54:55;;;;;;;1.38;0.70;;;19.10;53.00;;;;;;5070483;28;20048;-59
2022/12/20 03:57:21;;;;;;;1.00;0.70;;;19.10;52.90;;;;;;5071764;28;20040;-60
2022/12/20 03:59:47;;;;;;;1.40;0.57;;;19.20;53.00;;;;;;5071836;28;20049;-59
2022/12/20 04:02:12;;;;;;;1.45;0.80;;;19.20;53.00;;;;;;5067208;28;20122;-60
2022/12/20 04:04:38;;;;;;;1.60;0.80;;;19.20;53.00;;;;;;5054622;28;20101;-60
2022/12/20 04:07:03;;;;;;;1.20;0.60;;;19.20;53.00;;;;;;5054714;28;20053;-59
2022/12/20 04:09:29;;;;;;;2.05;0.70;;;19.20;53.00;;;;;;5055331;28;20500;-60
2022/12/20 04:11:54;;;;;;;1.40;0.70;;;19.20;53.00;;;;;;5056007;28;20395;-60
2022/12/20 04:14:20;;;;;;;0.98;0.65;;;19.20;53.00;;;;;;5054514;28;20044;-59
2022/12/20 04:16:45;;;;;;;1.60;0.70;;;19.30;53.00;;;;;;5055764;28;20124;-60
2022/12/20 04:19:11;;;;;;;1.17;0.88;;;19.30;53.00;;;;;;5055700;28;20459;-60
2022/12/20 04:21:37;;;;;;;1.38;0.70;;;19.30;53.00;;;;;;5054957;28;20416;-60
2022/12/20 04:24:03;;;;;;;1.15;0.70;;;19.30;53.00;;;;;;5055856;28;20044;-59
2022/12/20 04:26:29;;;;;;;1.90;0.88;;;19.30;53.00;;;;;;5055528;28;20053;-60
2022/12/20 04:28:54;;;;;;;1.42;0.73;;;19.30;53.00;;;;;;5054778;28;20087;-59
2022/12/20 04:31:20;;;;;;;1.42;0.85;;;19.40;53.00;;;;;;5055360;28;20085;-60
2022/12/20 04:33:46;;;;;;;1.95;0.60;;;19.40;53.00;;;;;;5055641;28;20549;-60
2022/12/20 04:36:11;;;;;;;1.45;0.70;;;19.40;53.00;;;;;;5053239;28;20041;-60
2022/12/20 04:38:37;;;;;;;1.58;0.68;;;19.40;53.00;;;;;;5055124;28;20049;-60
2022/12/20 04:41:03;;;;;;;1.27;0.60;;;19.40;53.70;;;;;;5055348;28;20044;-60
2022/12/20 04:43:28;;;;;;;1.55;0.70;;;19.40;53.00;;;;;;5054257;28;20049;-59
2022/12/20 04:45:57;;;;;;;1.60;0.70;;;19.40;53.00;;;;;;5061231;28;20048;-60
2022/12/20 04:48:25;;;;;;;1.95;1.05;;;19.50;53.00;;;;;;5074944;28;20076;-60
2022/12/20 04:50:52;;;;;;;1.63;0.60;;;19.50;53.00;;;;;;5073289;28;20051;-60
2022/12/20 04:56:02;;;;;;;0.65;0.60;;;19.50;53.00;;;;;;5074495;28;20146;-59
2022/12/20 04:58:27;;;;;;;0.98;0.50;;;19.50;53.00;;;;;;5074434;28;20480;-60
2022/12/20 05:00:53;;;;;;;1.63;0.63;;;19.50;53.00;;;;;;5062959;28;20048;-60
2022/12/20 05:03:19;;;;;;;1.60;0.70;;;19.50;53.00;;;;;;5054145;28;20547;-60
2022/12/20 05:05:45;;;;;;;2.03;0.55;;;19.60;53.10;;;;;;5054066;28;20106;-60
2022/12/20 05:08:10;;;;;;;1.50;0.80;;;19.60;53.00;;;;;;5054407;28;20037;-60
2022/12/20 05:10:36;;;;;;;1.50;0.52;;;19.60;53.00;;;;;;5053737;28;20055;-60
2022/12/20 05:13:01;;;;;;;1.08;0.50;;;19.60;53.00;;;;;;5053624;28;20055;-60
2022/12/20 05:15:28;;;;;;;1.15;0.60;;;19.60;53.10;;;;;;5054615;28;20053;-60
2022/12/20 05:17:58;;;;;;;0.98;0.50;;;19.60;53.00;;;;;;5054050;28;20049;-60
2022/12/20 05:20:24;;;;;;;1.05;0.60;;;19.60;53.00;;;;;;5054603;28;20091;-60
2022/12/20 05:28:18;;;;;;;1.65;0.82;;;19.70;53.10;;;;;;5054126;28;20045;-60
2022/12/20 05:30:44;;;;;;;1.08;0.60;;;19.70;53.10;;;;;;5054339;28;20373;-60
2022/12/20 05:33:09;;;;;;;1.27;0.93;;;19.70;53.10;;;;;;5053445;28;20048;-60
2022/12/20 05:35:35;;;;;;;1.48;0.50;;;19.70;53.10;;;;;;5054188;28;20049;-59
2022/12/20 05:38:01;;;;;;;1.67;0.68;;;19.70;53.10;;;;;;5053594;28;20127;-60
2022/12/20 05:40:27;;;;;;;1.77;0.68;;;19.70;53.10;;;;;;5053610;28;20123;-60
2022/12/20 05:42:53;;;;;;;1.13;0.50;;;19.70;53.00;;;;;;5054002;28;20139;-60
2022/12/20 05:45:18;;;;;;;0.90;0.50;;;19.70;53.10;;;;;;5052315;28;20048;-60
2022/12/20 05:47:44;;;;;;;2.28;0.65;;;19.70;53.10;;;;;;5054256;28;20076;-60
2022/12/20 05:50:10;;;;;;;2.13;0.70;;;19.70;53.00;;;;;;5053840;28;20463;-60
2022/12/20 05:52:35;;;;;;;2.05;0.60;;;19.80;53.10;;;;;;5053366;28;20041;-60
2022/12/20 05:55:01;;;;;;;1.15;0.77;;;19.80;53.10;;;;;;5053937;28;20041;-60
2022/12/20 05:57:27;;;;;;;0.98;0.60;;;19.80;53.80;;;;;;5053559;28;20225;-60
2022/12/20 05:59:53;;;;;;;1.10;0.50;;;19.80;53.10;;;;;;5052962;28;20040;-60
2022/12/20 06:02:19;;;;;;;2.47;0.52;;;19.80;53.10;;;;;;5052569;28;20595;-60
2022/12/20 06:04:44;;;;;;;1.05;0.50;;;19.80;53.10;;;;;;5053624;28;20053;-60
2022/12/20 06:07:10;;;;;;;1.02;0.57;;;19.80;53.10;;;;;;5052680;28;20045;-60
2022/12/20 06:09:36;;;;;;;1.67;0.70;;;19.80;53.10;;;;;;5053498;28;20052;-60
2022/12/20 06:12:01;;;;;;;2.17;0.68;;;19.80;53.10;;;;;;5053525;28;20052;-60
2022/12/20 06:14:27;;;;;;;1.00;0.55;;;19.90;53.10;;;;;;5052432;28;20036;-60
2022/12/20 06:16:52;;;;;;;1.60;0.70;;;19.80;53.10;;;;;;5053802;28;20570;-60
2022/12/20 06:19:18;;;;;;;1.60;0.50;;;19.90;53.10;;;;;;5053243;28;20388;-60
2022/12/20 06:21:43;;;;;;;1.15;0.60;;;19.80;53.00;;;;;;5052420;28;20037;-59
2022/12/20 06:24:09;;;;;;;1.05;0.65;;;19.90;53.10;;;;;;5053028;28;20083;-60
2022/12/20 06:26:35;;;;;;;1.00;0.60;;;19.90;53.10;;;;;;5053455;28;20408;-60
2022/12/20 06:29:06;;;;;;;0.63;0.40;;;19.90;53.10;;;;;;5052626;28;20049;-59
2022/12/20 06:31:32;;;;;;;0.95;0.70;;;19.90;53.10;;;;;;5053161;28;20033;-60
2022/12/20 06:33:58;;;;;;;1.30;0.70;;;19.90;53.10;;;;;;5053263;28;20045;-60
2022/12/20 06:36:23;;;;;;;1.60;0.70;;;19.90;53.10;;;;;;5052048;28;20047;-59
2022/12/20 06:38:49;;;;;;;1.50;0.60;;;19.90;53.10;;;;;;5053190;28;20096;-59
2022/12/20 06:41:15;;;;;;;0.82;0.60;;;19.90;53.00;;;;;;5052926;28;20044;-59
2022/12/20 06:43:40;;;;;;;0.88;0.43;;;19.90;53.00;;;;;;5052177;28;20037;-59
2022/12/20 06:46:06;;;;;;;1.02;0.50;;;19.90;53.00;;;;;;5052739;28;20044;-59
2022/12/20 06:48:31;;;;;;;0.73;0.50;;;19.90;53.10;;;;;;5051780;28;20071;-59
2022/12/20 06:50:57;;;;;;;1.40;0.70;;;19.90;53.10;;;;;;5052792;28;20064;-60
2022/12/20 06:53:23;;;;;;;1.25;0.50;;;20.00;53.10;;;;;;5052347;28;20484;-60
2022/12/20 06:55:49;;;;;;;1.13;0.55;;;19.90;53.00;;;;;;5052045;28;20053;-60
2022/12/20 06:58:15;;;;;;;1.42;0.50;;;20.00;53.10;;;;;;5052716;28;20044;-61
2022/12/20 07:00:41;;;;;;;0.75;0.60;;;20.00;53.10;;;;;;5053010;28;20037;-60
2022/12/20 07:03:07;;;;;;;1.00;0.50;;;20.00;53.10;;;;;;5050769;28;20047;-60
2022/12/20 07:05:32;;;;;;;1.52;0.50;;;20.00;53.10;;;;;;5051013;28;20044;-60
2022/12/20 07:07:58;;;;;;;0.47;0.45;;;20.00;53.10;;;;;;5052499;28;20041;-60
2022/12/20 07:10:24;;;;;;;0.63;0.40;;;20.00;53.10;;;;;;5051392;28;20067;-60
2022/12/20 07:12:51;;;;;;;1.00;0.50;;;19.90;53.00;;;;;;5052429;28;20496;-61
2022/12/20 07:15:17;;;;;;;0.60;0.43;;;20.00;53.10;;;;;;5052234;28;20040;-60
2022/12/20 07:17:43;;;;;;;1.55;0.50;;;20.00;53.00;;;;;;5051871;28;20305;-59
2022/12/20 07:20:09;;;;;;;1.55;0.50;;;20.00;53.00;;;;;;5056558;28;20071;-59
2022/12/20 07:22:34;;;;;;;1.27;0.65;;;20.00;53.00;;;;;;5072691;28;20048;-62
2022/12/20 07:25:00;;;;;;;1.27;0.70;;;20.00;53.00;;;;;;5071748;28;20032;-58
2022/12/20 07:27:26;;;;;;;2.45;0.47;;;20.00;53.10;;;;;;5072301;28;20048;-58
2022/12/20 07:29:51;;;;;;;3.75;0.73;;;20.00;53.10;;;;;;5072437;28;20387;-58
2022/12/20 07:32:17;;;;;;;1.75;0.80;;;20.00;53.10;;;;;;5071237;28;20044;-59
2022/12/20 07:34:42;;;;;;;1.60;0.60;;;20.00;53.20;;;;;;5071416;28;20080;-58
2022/12/20 07:37:08;;;;;;;2.22;0.90;;;20.10;53.20;;;;;;5072095;28;20040;-59
2022/12/20 07:39:34;;;;;;;1.65;0.77;;;20.10;53.20;;;;;;5071380;28;20091;-59
2022/12/20 07:41:59;;;;;;;1.77;0.55;;;20.20;53.20;;;;;;5071842;28;20040;-59
2022/12/20 07:44:25;;;;;;;1.85;0.35;;;20.20;53.10;;;;;;5071661;28;20040;-59
2022/12/20 07:46:51;;;;;;;2.63;0.73;;;20.20;53.10;;;;;;5071699;28;20056;-58
2022/12/20 07:49:16;;;;;;;2.08;0.65;;;20.20;53.10;;;;;;5071811;28;20404;-59
2022/12/20 07:51:47;;;;;;;3.45;0.70;;;20.20;53.10;;;;;;5069683;28;20047;-58
2022/12/20 07:54:34;;;;;;;4.28;0.82;;;20.20;53.10;;;;;;5052084;28;20060;-58
2022/12/20 07:57:11;;;;;;;2.28;0.60;;;20.30;53.30;;;;;;5067615;28;20171;-57
2022/12/20 07:59:40;;;;;;;2.17;0.60;;;20.30;53.20;;;;;;5051431;28;20098;-58
2022/12/20 08:02:07;;;;;;;9.57;1.25;;;20.40;53.40;;;;;;5050782;28;20033;-58
2022/12/20 08:04:33;;;;;;;3.13;0.77;;;20.40;53.50;;;;;;5052120;28;20033;-58
2022/12/20 08:06:59;;;;;;;4.28;0.70;;;20.40;53.70;;;;;;5049974;28;20040;-58
2022/12/20 08:09:24;;;;;;;2.38;0.60;;;20.40;53.70;;;;;;5050383;28;20055;-57
2022/12/20 08:11:50;;;;;;;1.15;0.60;;;20.40;53.70;;;;;;5050298;28;20051;-58
2022/12/20 08:14:16;;;;;;;3.30;0.60;;;20.40;53.70;;;;;;5049722;28;20041;-57
2022/12/20 08:16:42;;;;;;;3.63;0.77;;;20.50;53.80;;;;;;5052118;28;20041;-58
2022/12/20 08:19:08;;;;;;;2.08;0.50;;;20.50;53.80;;;;;;5051531;28;20069;-59
2022/12/20 08:21:34;;;;;;;3.28;0.85;;;20.50;54.00;;;;;;5051145;28;20388;-59
2022/12/20 08:23:59;;;;;;;3.33;0.80;;;20.50;54.00;;;;;;5051699;28;20480;-58
2022/12/20 08:26:25;;;;;;;3.20;0.60;;;20.50;54.00;;;;;;5051289;28;20049;-59
2022/12/20 08:28:51;;;;;;;2.47;0.70;;;20.50;54.10;;;;;;5050728;28;20395;-59
2022/12/20 08:31:16;;;;;;;2.35;0.70;;;20.60;54.20;;;;;;5051346;28;20083;-58
2022/12/20 08:33:42;;;;;;;3.55;0.80;;;20.60;54.20;;;;;;5051296;28;20037;-59
2022/12/20 08:36:09;;;;;;;2.92;0.70;;;20.60;54.20;;;;;;5051171;28;20068;-59
2022/12/20 08:38:35;;;;;;;3.75;0.82;;;20.60;54.30;;;;;;5050832;28;20120;-59
2022/12/20 08:41:02;;;;;;;1.67;0.98;;;20.60;54.10;;;;;;5050589;28;20175;-59
2022/12/20 08:43:27;;;;;;;3.22;0.60;;;20.60;54.00;;;;;;5050214;28;20151;-59
2022/12/20 08:45:54;;;;;;;1.92;0.57;;;20.60;54.00;;;;;;5052044;28;20457;-59
2022/12/20 08:48:20;;;;;;;1.48;0.70;;;20.70;54.00;;;;;;5053207;28;20404;-59
2022/12/20 08:50:45;;;;;;;4.95;0.70;;;20.60;53.90;;;;;;5053605;28;20472;-59
2022/12/20 08:53:11;;;;;;;3.08;0.70;;;20.70;53.90;;;;;;5055022;28;20041;-58
2022/12/20 08:55:36;;;;;;;1.52;0.70;;;20.60;53.80;;;;;;5054321;28;20512;-59
2022/12/20 08:58:02;;;;;;;3.67;0.70;;;20.60;53.80;;;;;;5055013;28;20044;-60
2022/12/20 09:00:28;;;;;;;4.53;0.80;;;20.70;53.90;;;;;;5055158;28;20048;-61
2022/12/20 09:02:54;;;;;;;1.13;0.60;;;20.70;53.90;;;;;;5054495;28;20045;-58
2022/12/20 09:05:19;;;;;;;4.18;0.88;;;20.70;53.80;;;;;;5054689;28;20469;-58
2022/12/20 09:07:45;;;;;;;2.85;0.60;;;20.70;53.90;;;;;;5055394;28;20044;-59
2022/12/20 09:10:12;;;;;;;2.85;0.60;;;20.70;54.00;;;;;;5053961;28;20140;-58
2022/12/20 09:12:37;;;;;;;2.25;0.60;;;20.70;54.10;;;;;;5049181;28;20489;-58
2022/12/20 09:15:04;;;;;;;2.33;0.82;;;20.70;54.00;;;;;;5043354;28;20048;-60
2022/12/20 09:17:30;;;;;;;5.43;0.60;;;20.70;53.90;;;;;;5058478;28;20041;-59
2022/12/20 09:19:55;;;;;;;3.20;0.73;;;20.70;53.90;;;;;;5054542;28;20044;-59
2022/12/20 09:22:21;;;;;;;3.38;0.70;;;20.70;53.90;;;;;;5058843;28;20032;-62
2022/12/20 09:24:46;;;;;;;4.18;0.70;;;20.70;54.10;;;;;;5051883;28;20041;-61
2022/12/20 09:27:12;;;;;;;4.57;0.70;;;20.70;54.10;;;;;;5053733;28;20052;-62
2022/12/20 09:29:38;;;;;;;2.95;0.73;;;20.70;54.10;;;;;;5053974;28;20118;-62
2022/12/20 09:32:03;;;;;;;4.05;0.60;;;20.70;54.10;;;;;;5053645;28;20566;-61
2022/12/20 09:34:29;;;;;;;2.65;0.73;;;20.70;54.10;;;;;;5053871;28;20182;-61
2022/12/20 09:36:55;;;;;;;4.75;0.95;;;20.70;54.10;;;;;;5054279;28;20115;-63
2022/12/20 09:39:21;;;;;;;4.53;1.48;;;20.70;53.90;;;;;;5053203;28;20503;-61
2022/12/20 09:41:46;;;;;;;1.83;0.70;;;20.70;54.00;;;;;;5054204;28;20044;-60
2022/12/20 09:44:14;;;;;;;3.65;1.08;;;20.70;54.10;;;;;;5051743;28;20080;-60
2022/12/20 09:46:40;;;;;;;4.47;0.97;;;20.70;54.00;;;;;;5054250;28;20048;-61
2022/12/20 09:49:05;;;;;;;4.97;1.00;;;20.70;54.00;;;;;;5054014;28;20295;-62
2022/12/20 09:51:46;;;;;;;3.65;0.80;;;20.60;53.90;;;;;;5054147;28;20820;-60
2022/12/20 09:54:33;;;;;;;1.77;0.73;;;20.60;53.80;;;;;;5053975;28;20118;-60
2022/12/20 09:57:25;;;;;;;3.42;0.80;;;20.70;53.90;;;;;;5058782;28;20037;-60
2022/12/20 09:59:50;;;;;;;2.10;0.85;;;20.60;53.80;;;;;;5072181;28;20055;-63
2022/12/20 10:02:20;;;;;;;4.18;0.80;;;20.60;53.80;;;;;;5073669;28;20048;-62
2022/12/20 10:04:45;;;;;;;2.60;0.70;;;20.60;54.00;;;;;;5072305;28;20450;-62
2022/12/20 10:07:38;;;;;;;2.72;0.80;;;20.60;54.30;;;;;;5071402;28;20472;-62
2022/12/20 10:10:15;;;;;;;2.25;0.93;;;20.70;54.50;;;;;;5069169;28;20382;-63
2022/12/20 10:13:07;;;;;;;3.05;0.80;;;20.60;54.40;;;;;;5052416;28;20068;-62
2022/12/20 10:15:51;;;;;;;4.03;1.17;;;20.60;54.40;;;;;;5051480;28;20056;-62
2022/12/20 10:18:37;;;;;;;2.45;0.90;;;20.60;54.50;;;;;;5051892;28;20060;-62
2022/12/20 10:21:17;;;;;;;5.80;1.17;;;20.60;54.50;;;;;;5052117;28;20049;-62
2022/12/20 10:24:09;;;;;;;3.05;0.90;;;20.60;54.60;;;;;;5052802;28;20047;-63
2022/12/20 10:26:35;;;;;;;2.00;0.70;;;20.60;54.60;;;;;;5068111;28;20041;-63
2022/12/20 10:29:00;;;;;;;2.03;0.73;;;20.60;54.60;;;;;;5053037;28;20089;-63
2022/12/20 10:31:26;;;;;;;2.17;0.70;;;20.60;54.60;;;;;;5052941;28;20106;-63
2022/12/20 10:33:51;;;;;;;2.13;0.90;;;20.60;54.60;;;;;;5050911;28;20083;-63
2022/12/20 10:36:17;;;;;;;4.32;0.82;;;20.60;54.50;;;;;;5052848;28;20123;-63
2022/12/20 10:38:50;;;;;;;2.05;0.88;;;20.60;54.50;;;;;;5052987;28;20117;-65
2022/12/20 10:41:22;;;;;;;2.63;1.00;;;20.60;54.60;;;;;;5052012;28;20485;-63
2022/12/20 10:44:09;;;;;;;3.50;1.17;;;20.60;54.60;;;;;;5052949;28;20542;-64
2022/12/20 10:46:49;;;;;;;1.40;0.50;;;20.60;54.70;;;;;;5051365;28;20052;-64
2022/12/20 10:49:31;;;;;;;1.80;0.77;;;20.60;54.70;;;;;;5050855;28;20081;-64
2022/12/20 10:52:02;;;;;;;1.85;0.65;;;20.60;54.70;;;;;;5051469;28;20044;-64
2022/12/20 10:54:33;;;;;;;3.88;0.82;;;20.60;54.70;;;;;;5052576;28;20115;-65
2022/12/20 10:57:01;;;;;;;2.10;0.77;;;20.60;54.80;;;;;;5053157;28;20052;-64
2022/12/20 10:59:35;;;;;;;1.83;0.67;;;20.60;54.80;;;;;;5052241;28;20049;-63
2022/12/20 11:02:01;;;;;;;3.47;0.80;;;20.60;54.80;;;;;;5051615;28;20120;-65
2022/12/20 11:04:34;;;;;;;1.98;0.80;;;20.50;54.80;;;;;;5053536;28;20119;-64
2022/12/20 11:07:00;;;;;;;4.63;0.70;;;20.60;54.90;;;;;;5071268;28;20048;-64
2022/12/20 11:09:30;;;;;;;2.15;0.65;;;20.60;54.90;;;;;;5069459;28;20052;-65
2022/12/20 11:12:04;;;;;;;2.45;0.70;;;20.50;54.90;;;;;;5071048;28;20553;-63
2022/12/20 11:14:31;;;;;;;1.40;0.70;;;20.50;54.90;;;;;;5071957;28;20068;-64
2022/12/20 11:16:58;;;;;;;2.92;0.65;;;20.50;54.90;;;;;;5071506;28;20040;-63
2022/12/20 11:19:49;;;;;;;3.13;0.95;;;20.50;54.90;;;;;;5071628;28;20090;-63
2022/12/20 11:22:15;;;;;;;1.92;0.90;;;20.50;54.90;;;;;;5054234;28;20041;-63
2022/12/20 11:24:43;;;;;;;2.05;0.70;;;20.50;54.90;;;;;;5070337;28;20044;-63
2022/12/20 11:27:30;;;;;;;3.00;0.90;;;20.50;54.80;;;;;;5072092;28;20048;-62
2022/12/20 11:30:04;;;;;;;1.02;0.63;;;20.50;54.70;;;;;;5070389;28;20043;-63
2022/12/20 11:32:51;;;;;;;4.32;1.10;;;20.50;54.70;;;;;;5071110;28;20048;-64
2022/12/20 11:35:21;;;;;;;2.10;1.10;;;20.50;54.70;;;;;;5072485;28;20463;-63
2022/12/20 11:38:09;;;;;;;1.77;0.80;;;20.50;54.80;;;;;;5071884;28;20044;-63
2022/12/20 11:40:43;;;;;;;2.23;0.97;;;20.50;55.00;;;;;;5071460;28;20044;-64
2022/12/20 11:43:30;;;;;;;3.33;1.00;;;20.50;55.00;;;;;;5070982;28;20049;-63
2022/12/20 11:46:20;;;;;;;4.30;0.80;;;20.50;54.90;;;;;;5072096;28;20135;-62
2022/12/20 11:48:51;;;;;;;2.63;0.90;;;20.50;54.90;;;;;;5047588;28;20050;-60
2022/12/20 11:51:34;;;;;;;3.78;1.05;;;20.50;55.00;;;;;;5045055;28;20049;-61
2022/12/20 11:54:25;;;;;;;2.60;0.85;;;20.50;55.10;;;;;;5051264;28;20084;-61
2022/12/20 11:56:55;;;;;;;2.50;1.00;;;20.50;55.10;;;;;;5055258;28;20377;-61
2022/12/20 11:59:35;;;;;;;1.58;0.90;;;20.50;55.10;;;;;;5048313;28;20044;-61
2022/12/20 12:02:14;;;;;;;3.15;1.08;;;20.50;55.10;;;;;;5051773;28;20064;-61
2022/12/20 12:05:17;;;;;;;2.28;0.88;;;20.50;55.70;;;;;;5033541;28;20131;-61
2022/12/20 12:07:43;;;;;;;4.00;0.85;;;20.50;55.00;;;;;;5047564;28;20053;-62
2022/12/20 12:10:13;;;;;;;5.60;1.00;;;20.50;55.10;;;;;;5033263;28;20087;-62
2022/12/20 12:12:39;;;;;;;3.67;0.95;;;20.40;55.10;;;;;;5050226;28;20123;-61
2022/12/20 12:15:36;;;;;;;3.45;0.80;;;20.40;55.20;;;;;;5050180;28;20040;-61
2022/12/20 12:18:17;;;;;;;2.03;0.80;;;20.50;55.20;;;;;;5041703;28;20060;-61
2022/12/20 12:21:05;;;;;;;2.13;0.80;;;20.40;55.20;;;;;;5046892;28;20064;-62
2022/12/20 12:23:48;;;;;;;4.15;0.95;;;20.50;55.30;;;;;;5039471;28;20045;-61
2022/12/20 12:26:26;;;;;;;2.72;0.88;;;20.50;55.40;;;;;;5053030;28;20045;-61
2022/12/20 12:28:57;;;;;;;1.45;0.77;;;20.40;55.30;;;;;;5051405;28;20036;-61
2022/12/20 12:31:36;;;;;;;4.30;0.90;;;20.50;55.50;;;;;;5053684;28;20116;-61
2022/12/20 12:34:23;;;;;;;2.63;0.82;;;20.50;55.60;;;;;;5043051;28;20050;-62
2022/12/20 12:37:04;;;;;;;2.47;0.70;;;20.50;55.60;;;;;;5054921;28;20111;-60
2022/12/20 12:39:59;;;;;;;3.45;0.95;;;20.50;55.60;;;;;;5053688;28;20099;-59
2022/12/20 12:42:35;;;;;;;1.20;0.60;;;20.50;55.70;;;;;;5053251;28;20056;-60
2022/12/20 12:45:06;;;;;;;2.10;0.80;;;20.50;55.70;;;;;;5054860;28;20102;-60
2022/12/20 12:48:07;;;;;;;2.58;0.90;;;20.50;55.60;;;;;;5052734;28;20044;-60
2022/12/20 12:50:35;;;;;;;2.08;0.70;;;20.50;55.70;;;;;;5049938;28;20137;-60
2022/12/20 12:53:07;;;;;;;4.90;0.80;;;20.50;55.70;;;;;;5055020;28;20052;-60
2022/12/20 12:55:45;;;;;;;2.75;0.88;;;20.60;55.80;;;;;;5052312;28;20044;-60
2022/12/20 12:58:28;;;;;;;;;;;20.60;55.70;;;;;;5053882;28;20055;-60
2022/12/20 13:00:55;;;;;;;2.22;0.80;;;20.50;55.70;;;;;;5054910;28;19921;-60
2022/12/20 13:04:06;;;;;;;2.67;0.80;;;20.60;55.70;;;;;;5052326;28;20048;-60
2022/12/20 13:06:34;;;;;;;2.85;0.77;;;20.60;55.80;;;;;;5070194;28;20518;-59
2022/12/20 13:09:02;;;;;;;;;;;20.60;55.70;;;;;;5061273;28;20045;-59
2022/12/20 13:11:31;;;;;;;;;;;20.60;55.70;;;;;;5054019;28;20011;-60